createdAt,value
2022-12-06T00:00:25.716Z,51.011040
2022-12-06T00:01:25.755Z,51.011044
2022-12-06T00:02:25.800Z,51.010822
2022-12-06T00:03:25.768Z,51.010838
2022-12-06T00:04:25.716Z,51.010967
2022-12-06T00:05:25.704Z,51.011055
2022-12-06T00:06:25.681Z,51.010998
2022-12-06T00:07:26.727Z,51.010891
2022-12-06T00:08:25.769Z,51.011024
2022-12-06T00:09:25.655Z,51.011082
2022-12-06T00:10:25.634Z,51.010887
2022-12-06T00:11:25.712Z,51.010944
2022-12-06T00:12:25.691Z,51.011032
2022-12-06T00:13:25.679Z,51.011024
2022-12-06T00:14:25.680Z,51.010956
2022-12-06T00:15:25.610Z,51.010952
2022-12-06T00:16:25.672Z,51.010990
2022-12-06T00:17:25.602Z,51.011044
2022-12-06T00:18:25.600Z,51.010990
2022-12-06T00:19:25.679Z,51.011017
2022-12-06T00:20:25.631Z,51.011013
2022-12-06T00:21:25.589Z,51.011028
2022-12-06T00:22:25.631Z,51.011028
2022-12-06T00:23:30.259Z,51.010994
2022-12-06T00:24:27.682Z,51.010983
2022-12-06T00:25:25.575Z,51.010963
2022-12-06T00:26:25.546Z,51.010952
2022-12-06T00:27:25.527Z,51.010853
2022-12-06T00:28:25.537Z,51.011036
2022-12-06T00:29:25.601Z,51.011032
2022-12-06T00:30:25.546Z,51.011135
2022-12-06T00:31:25.562Z,51.011120
2022-12-06T00:32:25.553Z,51.011059
2022-12-06T00:33:25.489Z,51.011002
2022-12-06T00:34:25.481Z,51.010952
2022-12-06T00:35:25.517Z,51.010986
2022-12-06T00:36:25.480Z,51.011047
2022-12-06T00:37:25.555Z,51.010960
2022-12-06T00:38:25.538Z,51.011040
2022-12-06T00:39:25.518Z,51.010929
2022-12-06T00:40:25.517Z,51.010853
2022-12-06T00:41:25.464Z,51.010910
2022-12-06T00:42:25.505Z,51.011036
2022-12-06T00:43:25.568Z,51.011028
2022-12-06T00:44:25.488Z,51.011024
2022-12-06T00:45:25.434Z,51.010990
2022-12-06T00:46:25.519Z,51.011013
2022-12-06T00:47:25.490Z,51.011017
2022-12-06T00:48:25.413Z,51.011005
2022-12-06T00:49:25.410Z,51.010994
2022-12-06T00:50:25.440Z,51.011002
2022-12-06T00:51:25.532Z,51.011032
2022-12-06T00:52:25.419Z,51.011021
2022-12-06T00:53:25.394Z,51.010994
2022-12-06T00:54:25.382Z,51.011013
2022-12-06T00:55:25.349Z,51.010971
2022-12-06T00:56:25.412Z,51.010986
2022-12-06T00:57:25.394Z,51.010971
2022-12-06T00:58:25.333Z,51.010998
2022-12-06T00:59:25.321Z,51.011017
2022-12-06T01:00:25.315Z,51.011013
2022-12-06T01:01:25.360Z,51.010998
2022-12-06T01:02:25.345Z,51.010963
2022-12-06T01:03:27.012Z,51.010883
2022-12-06T01:04:25.406Z,51.010963
2022-12-06T01:05:25.432Z,51.010963
2022-12-06T01:06:25.382Z,51.011005
2022-12-06T01:07:25.354Z,51.010963
2022-12-06T01:08:25.332Z,51.010967
2022-12-06T01:09:25.308Z,51.011017
2022-12-06T01:10:25.277Z,51.010983
2022-12-06T01:11:25.245Z,51.010983
2022-12-06T01:12:25.294Z,51.011021
2022-12-06T01:13:25.216Z,51.010963
2022-12-06T01:14:25.219Z,51.010899
2022-12-06T01:15:25.250Z,51.010933
2022-12-06T01:16:25.280Z,51.010998
2022-12-06T01:17:25.213Z,51.010948
2022-12-06T01:18:25.198Z,51.011013
2022-12-06T01:19:25.289Z,51.010933
2022-12-06T01:20:25.188Z,51.010929
2022-12-06T01:21:25.359Z,51.011005
2022-12-06T01:22:25.200Z,51.011017
2022-12-06T01:23:25.176Z,51.011002
2022-12-06T01:24:25.201Z,51.010994
2022-12-06T01:25:26.230Z,51.010994
2022-12-06T01:26:26.153Z,51.011097
2022-12-06T01:27:25.151Z,51.011032
2022-12-06T01:28:25.118Z,51.010967
2022-12-06T01:29:25.182Z,51.011002
2022-12-06T01:30:25.172Z,51.011017
2022-12-06T01:31:25.159Z,51.011063
2022-12-06T01:32:25.097Z,51.010990
2022-12-06T01:33:25.133Z,51.011028
2022-12-06T01:34:25.139Z,51.011089
2022-12-06T01:35:25.074Z,51.011051
2022-12-06T01:36:25.127Z,51.010986
2022-12-06T01:37:25.124Z,51.010975
2022-12-06T01:38:25.057Z,51.011063
2022-12-06T01:39:25.057Z,51.011097
2022-12-06T01:40:25.055Z,51.011013
2022-12-06T01:41:25.064Z,51.011013
2022-12-06T01:42:25.048Z,51.011047
2022-12-06T01:43:25.034Z,51.011047
2022-12-06T01:44:25.006Z,51.011047
2022-12-06T01:45:24.991Z,51.011005
2022-12-06T01:46:25.232Z,51.010975
2022-12-06T01:47:25.006Z,51.010963
2022-12-06T01:48:25.119Z,51.011021
2022-12-06T01:49:24.982Z,51.010963
2022-12-06T01:50:24.988Z,51.010963
2022-12-06T01:51:24.995Z,51.010960
2022-12-06T01:52:24.993Z,51.011013
2022-12-06T01:53:25.850Z,51.011070
2022-12-06T01:54:25.941Z,51.011047
2022-12-06T01:55:24.957Z,51.010952
2022-12-06T01:56:24.988Z,51.010990
2022-12-06T01:57:25.025Z,51.010990
2022-12-06T01:58:24.941Z,51.010948
2022-12-06T01:59:24.974Z,51.010983
2022-12-06T02:00:24.917Z,51.010902
2022-12-06T02:01:25.077Z,51.011013
2022-12-06T02:02:24.959Z,51.010998
2022-12-06T02:03:24.959Z,51.010971
2022-12-06T02:04:24.910Z,51.010918
2022-12-06T02:05:24.879Z,51.010971
2022-12-06T02:06:24.900Z,51.010990
2022-12-06T02:07:24.936Z,51.010994
2022-12-06T02:08:24.977Z,51.010960
2022-12-06T02:09:24.916Z,51.010883
2022-12-06T02:10:24.871Z,51.010979
2022-12-06T02:11:24.888Z,51.010975
2022-12-06T02:12:24.836Z,51.010906
2022-12-06T02:13:24.928Z,51.010960
2022-12-06T02:14:24.891Z,51.010975
2022-12-06T02:15:24.832Z,51.010891
2022-12-06T02:16:24.861Z,51.010864
2022-12-06T02:17:24.803Z,51.010941
2022-12-06T02:18:24.834Z,51.010906
2022-12-06T02:19:24.821Z,51.010872
2022-12-06T02:20:24.789Z,51.010944
2022-12-06T02:21:24.809Z,51.010929
2022-12-06T02:22:24.773Z,51.010929
2022-12-06T02:23:24.764Z,51.010990
2022-12-06T02:24:24.803Z,51.010956
2022-12-06T02:25:24.778Z,51.010990
2022-12-06T02:26:24.776Z,51.010990
2022-12-06T02:27:24.746Z,51.010998
2022-12-06T02:28:24.796Z,51.011002
2022-12-06T02:29:24.733Z,51.010925
2022-12-06T02:30:24.778Z,51.010937
2022-12-06T02:31:24.904Z,51.010975
2022-12-06T02:32:24.740Z,51.010990
2022-12-06T02:33:24.727Z,51.010960
2022-12-06T02:34:24.717Z,51.010967
2022-12-06T02:35:24.742Z,51.010941
2022-12-06T02:36:24.703Z,51.010994
2022-12-06T02:37:24.701Z,51.010983
2022-12-06T02:38:24.692Z,51.011002
2022-12-06T02:39:24.661Z,51.010983
2022-12-06T02:40:24.698Z,51.010952
2022-12-06T02:41:24.744Z,51.010990
2022-12-06T02:42:24.637Z,51.011036
2022-12-06T02:43:24.657Z,51.010990
2022-12-06T02:44:24.627Z,51.010925
2022-12-06T02:45:24.685Z,51.010979
2022-12-06T02:46:24.654Z,51.010990
2022-12-06T02:47:24.638Z,51.011047
2022-12-06T02:48:24.636Z,51.011070
2022-12-06T02:49:24.594Z,51.010983
2022-12-06T02:50:24.612Z,51.010975
2022-12-06T02:51:24.628Z,51.010983
2022-12-06T02:52:24.674Z,51.010876
2022-12-06T02:53:24.575Z,51.011040
2022-12-06T02:54:24.610Z,51.010948
2022-12-06T02:55:24.599Z,51.011036
2022-12-06T02:56:24.562Z,51.010994
2022-12-06T02:57:24.575Z,51.010944
2022-12-06T02:58:24.569Z,51.010868
2022-12-06T02:59:24.568Z,51.010941
2022-12-06T03:00:24.598Z,51.010929
2022-12-06T03:01:24.582Z,51.010899
2022-12-06T03:02:24.552Z,51.010998
2022-12-06T03:03:24.532Z,51.011036
2022-12-06T03:04:24.527Z,51.011028
2022-12-06T03:05:24.512Z,51.011147
2022-12-06T03:06:24.510Z,51.011135
2022-12-06T03:07:24.529Z,51.011021
2022-12-06T03:08:24.548Z,51.010937
2022-12-06T03:09:24.482Z,51.010994
2022-12-06T03:10:24.500Z,51.010986
2022-12-06T03:11:24.501Z,51.011021
2022-12-06T03:12:24.458Z,51.011070
2022-12-06T03:13:24.454Z,51.011021
2022-12-06T03:14:24.461Z,51.010895
2022-12-06T03:15:24.552Z,51.010963
2022-12-06T03:16:24.427Z,51.011040
2022-12-06T03:17:24.458Z,51.011024
2022-12-06T03:18:24.465Z,51.010960
2022-12-06T03:19:24.435Z,51.010918
2022-12-06T03:20:24.431Z,51.011024
2022-12-06T03:21:24.385Z,51.011177
2022-12-06T03:22:24.392Z,51.010952
2022-12-06T03:23:24.420Z,51.010937
2022-12-06T03:24:24.380Z,51.010983
2022-12-06T03:25:24.393Z,51.011108
2022-12-06T03:26:24.358Z,51.011024
2022-12-06T03:27:24.371Z,51.010975
2022-12-06T03:28:24.338Z,51.011101
2022-12-06T03:29:24.422Z,51.010986
2022-12-06T03:30:24.381Z,51.011063
2022-12-06T03:31:24.507Z,51.010971
2022-12-06T03:32:24.347Z,51.011044
2022-12-06T03:33:24.339Z,51.011089
2022-12-06T03:34:24.331Z,51.010921
2022-12-06T03:35:24.323Z,51.011024
2022-12-06T03:36:24.328Z,51.010906
2022-12-06T03:37:24.286Z,51.010937
2022-12-06T03:38:24.291Z,51.010769
2022-12-06T03:39:24.287Z,51.010746
2022-12-06T03:40:24.274Z,51.010921
2022-12-06T03:41:24.322Z,51.011063
2022-12-06T03:42:24.292Z,51.010994
2022-12-06T03:43:24.277Z,51.010960
2022-12-06T03:44:24.250Z,51.010963
2022-12-06T03:45:24.273Z,51.010925
2022-12-06T03:46:24.402Z,51.010895
2022-12-06T03:47:24.261Z,51.010818
2022-12-06T03:48:24.299Z,51.010860
2022-12-06T03:49:24.222Z,51.011070
2022-12-06T03:50:24.208Z,51.011219
2022-12-06T03:51:24.190Z,51.011036
2022-12-06T03:52:24.188Z,51.010941
2022-12-06T03:53:24.229Z,51.010895
2022-12-06T03:54:24.167Z,51.010975
2022-12-06T03:55:24.185Z,51.010723
2022-12-06T03:56:24.186Z,51.010784
2022-12-06T03:57:24.148Z,51.010746
2022-12-06T03:58:24.199Z,51.010448
2022-12-06T03:59:24.144Z,51.010536
2022-12-06T04:00:24.150Z,51.010578
2022-12-06T04:01:24.195Z,51.010426
2022-12-06T04:02:24.108Z,51.010517
2022-12-06T04:03:24.155Z,51.010426
2022-12-06T04:04:24.106Z,51.010532
2022-12-06T04:05:24.098Z,51.010452
2022-12-06T04:06:24.116Z,51.010513
2022-12-06T04:07:24.126Z,51.011005
2022-12-06T04:08:24.133Z,51.011009
2022-12-06T04:09:24.113Z,51.010929
2022-12-06T04:10:24.056Z,51.011021
2022-12-06T04:11:24.057Z,51.011101
2022-12-06T04:12:24.098Z,51.011147
2022-12-06T04:13:24.040Z,51.011112
2022-12-06T04:14:24.069Z,51.010918
2022-12-06T04:15:24.088Z,51.011116
2022-12-06T04:16:24.095Z,51.011089
2022-12-06T04:17:24.042Z,51.010921
2022-12-06T04:18:24.065Z,51.010864
2022-12-06T04:19:24.011Z,51.011055
2022-12-06T04:20:24.032Z,51.010960
2022-12-06T04:21:24.038Z,51.010948
2022-12-06T04:22:24.009Z,51.011063
2022-12-06T04:23:23.987Z,51.010998
2022-12-06T04:24:23.966Z,51.010979
2022-12-06T04:25:23.989Z,51.011044
2022-12-06T04:26:24.005Z,51.010983
2022-12-06T04:27:23.980Z,51.010994
2022-12-06T04:28:23.947Z,51.010796
2022-12-06T04:29:23.966Z,51.011028
2022-12-06T04:30:23.935Z,51.011044
2022-12-06T04:31:24.018Z,51.011108
2022-12-06T04:32:23.921Z,51.011196
2022-12-06T04:33:23.913Z,51.011173
2022-12-06T04:34:23.961Z,51.011066
2022-12-06T04:35:23.900Z,51.011002
2022-12-06T04:36:23.900Z,51.011082
2022-12-06T04:37:23.946Z,51.011108
2022-12-06T04:38:23.890Z,51.011101
2022-12-06T04:39:23.878Z,51.011097
2022-12-06T04:40:23.866Z,51.011009
2022-12-06T04:41:23.883Z,51.011147
2022-12-06T04:42:23.917Z,51.011063
2022-12-06T04:43:23.844Z,51.011009
2022-12-06T04:44:23.869Z,51.010914
2022-12-06T04:45:23.821Z,51.010967
2022-12-06T04:46:23.889Z,51.011066
2022-12-06T04:47:23.834Z,51.011082
2022-12-06T04:48:23.827Z,51.011082
2022-12-06T04:49:23.851Z,51.011066
2022-12-06T04:50:23.817Z,51.011005
2022-12-06T04:51:23.802Z,51.011047
2022-12-06T04:52:23.809Z,51.011009
2022-12-06T04:53:23.812Z,51.010929
2022-12-06T04:54:23.787Z,51.010952
2022-12-06T04:55:23.792Z,51.011021
2022-12-06T04:56:23.754Z,51.011044
2022-12-06T04:57:23.776Z,51.011055
2022-12-06T04:58:23.754Z,51.010971
2022-12-06T04:59:23.749Z,51.010975
2022-12-06T05:00:23.787Z,51.010967
2022-12-06T05:01:23.826Z,51.011051
2022-12-06T05:02:23.744Z,51.011047
2022-12-06T05:03:23.822Z,51.010998
2022-12-06T05:04:23.735Z,51.011017
2022-12-06T05:05:23.732Z,51.010910
2022-12-06T05:06:23.725Z,51.010960
2022-12-06T05:07:23.689Z,51.010979
2022-12-06T05:08:23.732Z,51.011055
2022-12-06T05:09:23.711Z,51.011105
2022-12-06T05:10:23.678Z,51.010899
2022-12-06T05:11:23.729Z,51.010986
2022-12-06T05:12:23.709Z,51.010983
2022-12-06T05:13:23.669Z,51.011009
2022-12-06T05:14:23.639Z,51.010994
2022-12-06T05:15:26.661Z,51.011005
2022-12-06T05:16:25.702Z,51.010983
2022-12-06T05:17:23.659Z,51.010963
2022-12-06T05:18:23.644Z,51.010952
2022-12-06T05:19:23.721Z,51.011005
2022-12-06T05:20:23.601Z,51.010979
2022-12-06T05:21:23.655Z,51.010986
2022-12-06T05:22:23.641Z,51.010960
2022-12-06T05:23:23.614Z,51.010941
2022-12-06T05:24:23.588Z,51.010990
2022-12-06T05:25:23.614Z,51.010933
2022-12-06T05:26:23.598Z,51.010979
2022-12-06T05:27:23.561Z,51.010994
2022-12-06T05:28:23.551Z,51.010979
2022-12-06T05:29:23.537Z,51.010952
2022-12-06T05:30:23.526Z,51.011013
2022-12-06T05:31:23.613Z,51.011002
2022-12-06T05:32:23.549Z,51.010986
2022-12-06T05:33:23.514Z,51.011024
2022-12-06T05:34:23.543Z,51.010952
2022-12-06T05:35:23.543Z,51.010994
2022-12-06T05:36:23.517Z,51.011036
2022-12-06T05:37:23.494Z,51.010994
2022-12-06T05:38:23.502Z,51.011066
2022-12-06T05:39:23.519Z,51.011028
2022-12-06T05:40:23.474Z,51.010986
2022-12-06T05:41:23.530Z,51.011005
2022-12-06T05:42:23.468Z,51.010941
2022-12-06T05:43:23.468Z,51.010944
2022-12-06T05:44:23.505Z,51.011005
2022-12-06T05:45:23.431Z,51.011017
2022-12-06T05:46:23.488Z,51.011078
2022-12-06T05:47:23.437Z,51.011044
2022-12-06T05:48:23.459Z,51.011013
2022-12-06T05:49:23.479Z,51.010998
2022-12-06T05:50:23.398Z,51.011028
2022-12-06T05:51:23.386Z,51.010960
2022-12-06T05:52:23.411Z,51.010914
2022-12-06T05:53:23.418Z,51.010990
2022-12-06T05:54:23.403Z,51.010925
2022-12-06T05:55:23.448Z,51.010963
2022-12-06T05:56:23.428Z,51.010925
2022-12-06T05:57:23.391Z,51.010948
2022-12-06T05:58:23.395Z,51.010975
2022-12-06T05:59:23.395Z,51.010971
2022-12-06T06:00:23.393Z,51.011021
2022-12-06T06:01:23.338Z,51.010887
2022-12-06T06:02:23.565Z,51.010830
2022-12-06T06:03:23.325Z,51.010971
2022-12-06T06:04:24.333Z,51.010975
2022-12-06T06:05:23.349Z,51.010983
2022-12-06T06:06:23.304Z,51.010910
2022-12-06T06:07:23.319Z,51.010990
2022-12-06T06:08:23.383Z,51.011036
2022-12-06T06:09:23.297Z,51.010994
2022-12-06T06:10:23.305Z,51.010979
2022-12-06T06:11:23.314Z,51.011005
2022-12-06T06:12:23.292Z,51.010849
2022-12-06T06:13:23.251Z,51.010983
2022-12-06T06:14:23.241Z,51.010979
2022-12-06T06:15:23.263Z,51.011013
2022-12-06T06:16:23.314Z,51.011097
2022-12-06T06:17:23.233Z,51.011005
2022-12-06T06:18:23.261Z,51.010857
2022-12-06T06:19:23.253Z,51.011032
2022-12-06T06:20:23.204Z,51.011040
2022-12-06T06:21:23.213Z,51.010967
2022-12-06T06:22:23.211Z,51.011017
2022-12-06T06:23:23.190Z,51.011013
2022-12-06T06:24:23.217Z,51.011024
2022-12-06T06:25:23.251Z,51.011013
2022-12-06T06:26:23.210Z,51.010941
2022-12-06T06:27:23.192Z,51.011032
2022-12-06T06:28:23.161Z,51.010971
2022-12-06T06:29:23.264Z,51.010891
2022-12-06T06:30:23.161Z,51.010925
2022-12-06T06:31:23.186Z,51.010998
2022-12-06T06:32:23.147Z,51.010746
2022-12-06T06:33:23.133Z,51.010796
2022-12-06T06:34:23.150Z,51.010944
2022-12-06T06:35:23.120Z,51.011063
2022-12-06T06:36:23.132Z,51.011066
2022-12-06T06:37:23.109Z,51.011105
2022-12-06T06:38:23.097Z,51.010948
2022-12-06T06:39:23.319Z,51.011066
2022-12-06T06:40:23.105Z,51.011101
2022-12-06T06:41:23.093Z,51.011036
2022-12-06T06:42:23.098Z,51.010891
2022-12-06T06:43:23.066Z,51.011055
2022-12-06T06:44:23.105Z,51.010944
2022-12-06T06:45:28.359Z,51.010952
2022-12-06T06:46:25.090Z,51.011040
2022-12-06T06:47:23.067Z,51.010944
2022-12-06T06:48:23.043Z,51.011047
2022-12-06T06:49:23.030Z,51.011005
2022-12-06T06:50:23.019Z,51.011009
2022-12-06T06:51:23.053Z,51.011021
2022-12-06T06:52:22.997Z,51.010990
2022-12-06T06:53:23.015Z,51.011162
2022-12-06T06:54:23.006Z,51.011082
2022-12-06T06:55:23.050Z,51.010883
2022-12-06T06:56:23.023Z,51.010986
2022-12-06T06:57:22.969Z,51.010918
2022-12-06T06:58:22.992Z,51.011112
2022-12-06T06:59:23.011Z,51.011120
2022-12-06T07:00:22.971Z,51.011070
2022-12-06T07:01:23.279Z,51.011181
2022-12-06T07:02:22.973Z,51.011604
2022-12-06T07:03:22.928Z,51.011238
2022-12-06T07:04:23.011Z,51.011036
2022-12-06T07:05:22.937Z,51.011009
2022-12-06T07:06:22.923Z,51.011135
2022-12-06T07:07:22.920Z,51.011063
2022-12-06T07:08:22.977Z,51.010994
2022-12-06T07:09:22.920Z,51.010883
2022-12-06T07:10:22.884Z,51.011074
2022-12-06T07:11:22.887Z,51.011070
2022-12-06T07:12:22.897Z,51.010822
2022-12-06T07:13:22.893Z,51.010899
2022-12-06T07:14:22.862Z,51.010838
2022-12-06T07:15:22.956Z,51.010956
2022-12-06T07:16:22.922Z,51.010983
2022-12-06T07:17:22.847Z,51.010921
2022-12-06T07:18:22.823Z,51.010765
2022-12-06T07:19:22.823Z,51.010845
2022-12-06T07:20:22.827Z,51.011055
2022-12-06T07:21:22.892Z,51.011013
2022-12-06T07:22:22.865Z,51.011028
2022-12-06T07:23:22.806Z,51.011032
2022-12-06T07:24:22.793Z,51.011040
2022-12-06T07:25:22.777Z,51.011086
2022-12-06T07:26:22.834Z,51.011021
2022-12-06T07:27:22.815Z,51.010929
2022-12-06T07:28:22.789Z,51.010963
2022-12-06T07:29:22.773Z,51.010914
2022-12-06T07:30:27.214Z,51.010899
2022-12-06T07:31:23.825Z,51.010891
2022-12-06T07:32:22.781Z,51.010960
2022-12-06T07:33:22.759Z,51.010921
2022-12-06T07:34:22.749Z,51.010979
2022-12-06T07:35:23.222Z,51.010998
2022-12-06T07:36:22.893Z,51.011021
2022-12-06T07:37:22.958Z,51.011059
2022-12-06T07:38:22.704Z,51.011143
2022-12-06T07:39:22.737Z,51.010941
2022-12-06T07:40:41.286Z,51.010937
2022-12-06T07:41:24.686Z,51.011040
2022-12-06T07:42:22.698Z,51.010929
2022-12-06T07:43:22.671Z,51.010952
2022-12-06T07:44:22.711Z,51.010998
2022-12-06T07:45:22.726Z,51.011280
2022-12-06T07:46:22.723Z,51.011005
2022-12-06T07:47:22.679Z,51.011005
2022-12-06T07:48:22.640Z,51.010944
2022-12-06T07:49:22.695Z,51.010769
2022-12-06T07:50:22.633Z,51.011028
2022-12-06T07:51:22.633Z,51.010975
2022-12-06T07:52:22.653Z,51.010910
2022-12-06T07:53:22.612Z,51.010990
2022-12-06T07:54:23.620Z,51.011044
2022-12-06T07:55:22.595Z,51.011044
2022-12-06T07:56:22.608Z,51.011036
2022-12-06T07:57:22.617Z,51.011047
2022-12-06T07:58:22.588Z,51.010994
2022-12-06T07:59:22.573Z,51.010880
2022-12-06T08:00:22.710Z,51.010979
2022-12-06T08:01:22.643Z,51.010956
2022-12-06T08:02:23.587Z,51.011070
2022-12-06T08:03:23.265Z,51.011044
2022-12-06T08:04:22.655Z,51.011086
2022-12-06T08:05:22.545Z,51.011086
2022-12-06T08:06:22.553Z,51.011028
2022-12-06T08:07:22.651Z,51.010876
2022-12-06T08:08:27.971Z,51.010807
2022-12-06T08:09:24.532Z,51.010853
2022-12-06T08:10:22.503Z,51.010853
2022-12-06T08:11:22.494Z,51.010830
2022-12-06T08:12:22.596Z,51.010857
2022-12-06T08:13:22.754Z,51.010757
2022-12-06T08:14:22.520Z,51.010742
2022-12-06T08:15:22.488Z,51.010754
2022-12-06T08:16:22.614Z,51.010853
2022-12-06T08:17:22.471Z,51.010822
2022-12-06T08:18:22.447Z,51.010944
2022-12-06T08:19:22.480Z,51.010872
2022-12-06T08:20:22.470Z,51.010986
2022-12-06T08:21:23.436Z,51.011066
2022-12-06T08:22:22.439Z,51.010975
2022-12-06T08:23:22.490Z,51.010891
2022-12-06T08:24:22.452Z,51.010860
2022-12-06T08:25:22.475Z,51.010906
2022-12-06T08:26:22.409Z,51.010849
2022-12-06T08:27:22.400Z,51.011009
2022-12-06T08:28:22.412Z,51.010910
2022-12-06T08:29:22.402Z,51.010948
2022-12-06T08:30:22.416Z,51.010891
2022-12-06T08:31:22.476Z,51.010921
2022-12-06T08:32:22.363Z,51.010769
2022-12-06T08:33:22.400Z,51.010792
2022-12-06T08:34:22.371Z,51.010853
2022-12-06T08:35:22.576Z,51.010998
2022-12-06T08:36:22.341Z,51.010944
2022-12-06T08:37:22.363Z,51.010986
2022-12-06T08:38:22.340Z,51.010971
2022-12-06T08:39:22.352Z,51.011009
2022-12-06T08:40:22.334Z,51.011028
2022-12-06T08:41:22.315Z,51.010998
2022-12-06T08:42:25.358Z,51.010990
2022-12-06T08:43:23.378Z,51.010967
2022-12-06T08:44:22.330Z,51.010971
2022-12-06T08:45:22.299Z,51.010998
2022-12-06T08:46:22.490Z,51.010933
2022-12-06T08:47:22.281Z,51.010925
2022-12-06T08:48:22.275Z,51.010975
2022-12-06T08:49:22.267Z,51.010971
2022-12-06T08:50:22.261Z,51.010967
2022-12-06T08:51:22.287Z,51.010956
2022-12-06T08:52:22.306Z,51.010929
2022-12-06T08:53:22.244Z,51.010983
2022-12-06T08:54:22.237Z,51.010979
2022-12-06T08:55:22.210Z,51.010937
2022-12-06T08:56:22.255Z,51.010941
2022-12-06T08:57:22.254Z,51.011013
2022-12-06T08:58:22.206Z,51.010979
2022-12-06T08:59:22.188Z,51.010921
2022-12-06T09:00:22.213Z,51.010983
2022-12-06T09:01:22.244Z,51.010948
2022-12-06T09:02:22.197Z,51.010963
2022-12-06T09:03:22.233Z,51.010990
2022-12-06T09:04:22.179Z,51.010929
2022-12-06T09:05:22.139Z,51.010983
2022-12-06T09:06:22.141Z,51.010960
2022-12-06T09:07:22.138Z,51.010967
2022-12-06T09:08:22.194Z,51.010944
2022-12-06T09:09:22.125Z,51.011009
2022-12-06T09:10:22.214Z,51.010990
2022-12-06T09:11:22.095Z,51.010944
2022-12-06T09:12:22.116Z,51.010944
2022-12-06T09:13:22.203Z,51.010971
2022-12-06T09:14:22.611Z,51.011005
2022-12-06T09:15:23.100Z,51.010971
2022-12-06T09:16:22.179Z,51.010921
2022-12-06T09:17:22.064Z,51.010990
2022-12-06T09:18:22.104Z,51.010952
2022-12-06T09:19:22.081Z,51.010876
2022-12-06T09:20:22.049Z,51.010838
2022-12-06T09:21:22.051Z,51.010994
2022-12-06T09:22:22.159Z,51.011059
2022-12-06T09:23:22.035Z,51.010960
2022-12-06T09:24:22.053Z,51.010765
2022-12-06T09:25:22.017Z,51.010818
2022-12-06T09:26:21.996Z,51.010872
2022-12-06T09:27:21.987Z,51.010784
2022-12-06T09:28:21.998Z,51.010834
2022-12-06T09:29:22.019Z,51.010796
2022-12-06T09:30:21.982Z,51.011116
2022-12-06T09:31:22.109Z,51.010910
2022-12-06T09:32:21.967Z,51.010929
2022-12-06T09:33:22.009Z,51.010941
2022-12-06T09:34:21.990Z,51.011028
2022-12-06T09:35:24.999Z,51.011051
2022-12-06T09:36:22.982Z,51.010933
2022-12-06T09:37:21.960Z,51.010971
2022-12-06T09:38:21.971Z,51.010933
2022-12-06T09:39:22.047Z,51.010906
2022-12-06T09:40:22.099Z,51.010986
2022-12-06T09:41:22.010Z,51.011150
2022-12-06T09:42:21.920Z,51.011066
2022-12-06T09:43:21.966Z,51.010956
2022-12-06T09:44:21.909Z,51.010994
2022-12-06T09:45:21.888Z,51.010941
2022-12-06T09:46:21.931Z,51.010918
2022-12-06T09:47:21.863Z,51.010960
2022-12-06T09:48:21.874Z,51.010746
2022-12-06T09:49:21.905Z,51.010986
2022-12-06T09:50:21.854Z,51.011024
2022-12-06T09:51:22.221Z,51.010986
2022-12-06T09:52:21.851Z,51.011070
2022-12-06T09:53:21.840Z,51.010826
2022-12-06T09:54:21.820Z,51.010948
2022-12-06T09:55:21.836Z,51.010990
2022-12-06T09:56:21.865Z,51.010941
2022-12-06T09:57:21.819Z,51.011101
2022-12-06T09:58:22.011Z,51.011185
2022-12-06T09:59:21.797Z,51.011364
2022-12-06T10:00:23.097Z,51.011127
2022-12-06T10:01:22.801Z,51.011005
2022-12-06T10:02:21.824Z,51.011326
2022-12-06T10:03:21.967Z,51.011383
2022-12-06T10:04:21.777Z,51.011314
2022-12-06T10:05:21.757Z,51.011276
2022-12-06T10:06:21.750Z,51.011002
2022-12-06T10:07:21.760Z,51.010857
2022-12-06T10:08:21.917Z,51.010559
2022-12-06T10:09:21.774Z,51.010483
2022-12-06T10:10:21.763Z,51.010471
2022-12-06T10:11:21.710Z,51.010563
2022-12-06T10:12:22.695Z,51.010601
2022-12-06T10:13:21.703Z,51.010658
2022-12-06T10:14:21.707Z,51.010757
2022-12-06T10:15:21.703Z,51.010777
2022-12-06T10:16:21.767Z,51.010773
2022-12-06T10:17:21.666Z,51.010639
2022-12-06T10:18:21.730Z,51.011005
2022-12-06T10:19:21.701Z,51.011078
2022-12-06T10:20:21.657Z,51.011082
2022-12-06T10:21:21.775Z,51.011066
2022-12-06T10:22:21.647Z,51.011082
2022-12-06T10:23:21.656Z,51.011024
2022-12-06T10:24:21.665Z,51.011028
2022-12-06T10:25:21.660Z,51.011036
2022-12-06T10:26:21.669Z,51.011082
2022-12-06T10:27:21.636Z,51.011101
2022-12-06T10:28:21.612Z,51.011074
2022-12-06T10:29:27.541Z,51.011021
2022-12-06T10:30:23.617Z,51.010963
2022-12-06T10:31:21.660Z,51.011021
2022-12-06T10:32:21.599Z,51.011059
2022-12-06T10:33:21.584Z,51.011135
2022-12-06T10:34:21.593Z,51.011086
2022-12-06T10:35:21.641Z,51.011127
2022-12-06T10:36:21.647Z,51.011044
2022-12-06T10:37:21.598Z,51.011028
2022-12-06T10:38:21.544Z,51.010967
2022-12-06T10:39:21.552Z,51.010948
2022-12-06T10:40:21.592Z,51.010971
2022-12-06T10:41:21.525Z,51.010921
2022-12-06T10:42:21.583Z,51.010838
2022-12-06T10:43:21.535Z,51.010952
2022-12-06T10:44:21.496Z,51.011021
2022-12-06T10:45:24.880Z,51.011036
2022-12-06T10:46:22.567Z,51.011066
2022-12-06T10:47:21.519Z,51.011036
2022-12-06T10:48:21.475Z,51.011047
2022-12-06T10:49:21.454Z,51.011105
2022-12-06T10:50:21.490Z,51.010990
2022-12-06T10:51:21.456Z,51.011078
2022-12-06T10:52:21.469Z,51.011093
2022-12-06T10:53:21.450Z,51.011009
2022-12-06T10:54:21.462Z,51.010899
2022-12-06T10:55:21.570Z,51.010998
2022-12-06T10:56:21.418Z,51.011021
2022-12-06T10:57:21.427Z,51.010948
2022-12-06T10:58:21.420Z,51.010944
2022-12-06T10:59:21.431Z,51.011036
2022-12-06T11:00:21.738Z,51.011024
2022-12-06T11:01:21.459Z,51.011009
2022-12-06T11:02:21.520Z,51.011059
2022-12-06T11:03:21.428Z,51.011131
2022-12-06T11:04:21.421Z,51.011063
2022-12-06T11:05:21.377Z,51.011108
2022-12-06T11:06:21.370Z,51.011044
2022-12-06T11:07:21.387Z,51.011021
2022-12-06T11:08:21.469Z,51.011040
2022-12-06T11:09:21.405Z,51.011032
2022-12-06T11:10:21.379Z,51.011097
2022-12-06T11:11:21.509Z,51.011089
2022-12-06T11:12:24.178Z,51.010921
2022-12-06T11:13:22.423Z,51.011051
2022-12-06T11:14:21.291Z,51.011024
2022-12-06T11:15:22.299Z,51.010933
2022-12-06T11:16:21.409Z,51.010887
2022-12-06T11:17:21.289Z,51.011009
2022-12-06T11:18:21.306Z,51.011013
2022-12-06T11:19:21.293Z,51.010986
2022-12-06T11:20:21.263Z,51.010983
2022-12-06T11:21:21.271Z,51.010979
2022-12-06T11:22:21.274Z,51.011139
2022-12-06T11:23:21.251Z,51.010994
2022-12-06T11:24:21.306Z,51.010986